Detalii statie MIRACOM [00001CFF]

Toti senzorii

Date Temperatura solului [C]Precipitatii [mm]Voltaj baterie [mV]Leaf Wetness [Min]HC Air temperature [C]HC Relative humidity [%]Punctul de roua [C]
medieminmaxsumaultimatimpmedieminmaxmediemediemin
2017-12-10 21:00:00 1.1 1 1.4 0 6972 -0.14 -0.39 -0.02 0 0 0
2017-12-10 22:00:00 0.9 0.8 1 0 6962 -0.44 -0.52 -0.31 0 0 0
2017-12-10 23:00:00 0.7 0.5 0.9 0 6962 -0.59 -0.73 -0.47 0 0 0
2017-12-11 00:00:00 0.6 0.6 0.8 0 6962 -0.57 -0.72 -0.35 0 0 0
2017-12-11 01:00:00 0.5 0.5 0.7 0 6952 -0.7 -0.96 -0.56 0 0 0
2017-12-11 02:00:00 0.4 0.4 0.6 0 6952 -0.66 -0.91 -0.37 0 0 0
2017-12-11 03:00:00 0.4 0.4 0.5 0 6962 -0.61 -0.98 -0.18 0 0 0
2017-12-11 04:00:00 0.3 0.2 0.5 0 6952 -1.63 -2.7 -1 0 0 0
2017-12-11 05:00:00 0.2 0.2 0.4 0 6952 -1.86 -2.57 -1.07 0 0 0
2017-12-11 06:00:00 0.2 0.2 0.4 0 6942 -2.36 -3.17 -1.81 0 0 0
2017-12-11 07:00:00 0.1 0 0.2 0 6942 -3.41 -3.93 -3.1 0 0 0
2017-12-11 08:00:00 0 0 0.3 0 6942 -2.76 -3.25 -2.43 0 0 0
2017-12-11 09:00:00 0 0 0.2 0 7186 -1.21 -2.62 0.23 0 0 0
2017-12-11 10:00:00 0 0 0.1 0 7362 1.53 0.75 2.77 0 0 0
2017-12-11 11:00:00 0 0 0.2 0 7372 4.18 2.83 5.03 0 0 0
2017-12-11 12:00:00 0 0 0.2 0 7372 4.16 3.71 4.98 0 0 0
2017-12-11 13:00:00 0.1 -0.1 0.3 0 7352 5.14 3.97 6.12 0 0 0
2017-12-11 14:00:00 0.3 0.2 0.6 0 7294 4.88 4.64 5.25 0 0 0
2017-12-11 15:00:00 0.6 0.4 0.9 0 7226 4.28 3.91 4.68 0 0 0
2017-12-11 16:00:00 0.9 0.8 1.1 0 7138 3.72 3.05 4.11 0 0 0
2017-12-11 17:00:00 0.9 0.8 1.1 0 7088 2.29 1.54 2.95 0 0 0
2017-12-11 18:00:00 0.8 0.7 1 0 7070 1.74 1.28 2.2 0 0 0
2017-12-11 19:00:00 0.6 0.6 0.8 0 7050 1.77 1.43 2.18 0 0 0
2017-12-11 20:00:00 0.5 0.4 0.6 0 7040 1.18 0.9 1.71 0 0 0
2017-12-11 21:00:00 0.4 0.3 0.6 0 7030 0.58 -0.08 1 0 0 0
2017-12-11 22:00:00 0.4 0.3 0.5 0 7030 1.06 0.06 2.21 0 0 0
2017-12-11 23:00:00 0.3 0.2 0.6 0 7020 0.92 0.31 1.59 0 0 0
2017-12-12 00:00:00 0.3 0.2 0.6 0 7010 0.62 0.43 0.97 0 0 0
2017-12-12 01:00:00 0.2 0.1 0.3 0 7000 0.65 0.07 1.24 0 0 0
2017-12-12 02:00:00 0.2 0.1 0.4 0 7000 1.07 0.81 1.35 0 0 0
2017-12-12 03:00:00 0.2 0.1 0.3 0 6982 1.04 0.43 1.64 0 0 0
2017-12-12 04:00:00 0.1 0.1 0.2 0 6982 0.91 0.31 1.86 0 0 0
2017-12-12 05:00:00 0.1 0.1 0.2 0 6972 0.84 0.31 1.35 0 0 0
2017-12-12 06:00:00 0.1 0 0.3 0 6972 1.23 0.94 1.64 0 0 0
2017-12-12 07:00:00 0.1 0 0.2 0 6962 1.05 0.66 1.76 0 0 0
2017-12-12 08:00:00 0 0 0.1 0 6962 0.62 0.09 1.49 0 0 0
2017-12-12 09:00:00 0 0 0.2 0 7166 3.43 2.03 4.98 0 0 0
2017-12-12 10:00:00 0 0 0.2 0 7362 5.87 4.4 8.07 0 0 0
2017-12-12 11:00:00 0.1 0 0.3 0 7362 8.56 7.96 9.59 0 0 0
2017-12-12 12:00:00 0.6 0.2 1.3 0 7362 10.31 9.97 10.72 0 0 0
2017-12-12 13:00:00 2 1.3 2.8 0 7362 11.42 10.83 11.95 0 0 0
2017-12-12 14:00:00 3.3 2.9 3.8 0 7362 11.55 11.19 12.05 0 0 0
2017-12-12 15:00:00 4 3.9 4.3 0 7314 11.01 10.74 11.36 0 0 0
2017-12-12 16:00:00 4.1 4 4.2 0 7196 10.34 9.44 10.91 0 0 0
2017-12-12 17:00:00 4 3.9 4.2 0 7098 8.43 7.53 9.35 0 0 0
2017-12-12 18:00:00 3.7 3.6 4 0 7088 6.66 6.3 7.52 0 0 0
2017-12-12 19:00:00 3.4 3.3 3.7 0 7070 6.09 5.72 6.54 0 0 0
2017-12-12 20:00:00 3.1 3 3.3 0 7060 6.35 6.08 6.58 0 0 0